Map

Track Data

SID SEASON NUMBER BASIN SUBBASIN NAME ISO_TIME NATURE LAT LON WMO_WIND WMO_PRES WMO_AGENCY TRACK_TYPE DIST2LAND LANDFALL IFLAG USA_AGENCY USA_ATCF_ID USA_LAT USA_LON USA_RECORD USA_STATUS USA_WIND USA_PRES USA_SSHS USA_R34_NE USA_R34_SE USA_R34_SW USA_R34_NW USA_R50_NE USA_R50_SE USA_R50_SW USA_R50_NW USA_R64_NE USA_R64_SE USA_R64_SW USA_R64_NW USA_POCI USA_ROCI USA_RMW USA_EYE TOKYO_LAT TOKYO_LON TOKYO_GRADE TOKYO_WIND TOKYO_PRES TOKYO_R50_DIR TOKYO_R50_LONG TOKYO_R50_SHORT TOKYO_R30_DIR TOKYO_R30_LONG TOKYO_R30_SHORT TOKYO_LAND CMA_LAT CMA_LON CMA_CAT CMA_WIND CMA_PRES HKO_LAT HKO_LON HKO_CAT HKO_WIND HKO_PRES NEWDELHI_LAT NEWDELHI_LON NEWDELHI_GRADE NEWDELHI_WIND NEWDELHI_PRES NEWDELHI_CI NEWDELHI_DP NEWDELHI_POCI REUNION_LAT REUNION_LON REUNION_TYPE REUNION_WIND REUNION_PRES REUNION_TNUM REUNION_CI REUNION_RMW REUNION_R34_NE REUNION_R34_SE REUNION_R34_SW REUNION_R34_NW REUNION_R50_NE REUNION_R50_SE REUNION_R50_SW REUNION_R50_NW REUNION_R64_NE REUNION_R64_SE REUNION_R64_SW REUNION_R64_NW BOM_LAT BOM_LON BOM_TYPE BOM_WIND BOM_PRES BOM_TNUM BOM_CI BOM_RMW BOM_R34_NE BOM_R34_SE BOM_R34_SW BOM_R34_NW BOM_R50_NE BOM_R50_SE BOM_R50_SW BOM_R50_NW BOM_R64_NE BOM_R64_SE BOM_R64_SW BOM_R64_NW BOM_ROCI BOM_POCI BOM_EYE BOM_POS_METHOD BOM_PRES_METHOD NADI_LAT NADI_LON NADI_CAT NADI_WIND NADI_PRES WELLINGTON_LAT WELLINGTON_LON WELLINGTON_WIND WELLINGTON_PRES DS824_LAT DS824_LON DS824_STAGE DS824_WIND DS824_PRES TD9636_LAT TD9636_LON TD9636_STAGE TD9636_WIND TD9636_PRES TD9635_LAT TD9635_LON TD9635_WIND TD9635_PRES TD9635_ROCI NEUMANN_LAT NEUMANN_LON NEUMANN_CLASS NEUMANN_WIND NEUMANN_PRES MLC_LAT MLC_LON MLC_CLASS MLC_WIND MLC_PRES USA_GUST BOM_GUST BOM_GUST_PER REUNION_GUST REUNION_GUST_PER USA_SEAHGT USA_SEARAD_NE USA_SEARAD_SE USA_SEARAD_SW USA_SEARAD_NW STORM_SPEED STORM_DIR
1971350S14194 1972 161 SP MM VIVIENNE 1971-12-16 00:00:00 TS -14.0000 -166.000 main 669 669 O________OO___ jtwc_sh SH081972 -14.0000 -166.000 -1 -14.0000 194.000 TC 35 -14.0000 -166.000 2 10 120
1971350S14194 1972 161 SP MM VIVIENNE 1971-12-16 03:00:00 TS -14.2581 -165.539 main 725 725 P________PP___ SH081972 -14.2551 -165.553 -1 -14.2551 -165.553 TC 35 -14.2640 -165.513 2 9 120
1971350S14194 1972 161 SP MM VIVIENNE 1971-12-16 06:00:00 TS -14.4536 -165.172 main 759 759 O________OP_O_ jtwc_sh SH081972 -14.5000 -165.100 -1 -14.5000 194.900 TC 35 -14.5119 -165.040 2 -14.0000 -166.000 TC 25 9 118
1971350S14194 1972 161 SP MM VIVIENNE 1971-12-16 09:00:00 TS -14.6579 -164.759 main 804 804 P________PP_P_ SH081972 -14.7225 -164.642 -1 -14.7225 -164.642 TC 35 -14.7289 -164.597 2 -14.2576 -165.553 TC 25 9 116
1971350S14194 1972 161 SP MM VIVIENNE 1971-12-16 12:00:00 TS -14.8200 -164.380 main 848 848 O________OO_O_ jtwc_sh SH081972 -14.9000 -164.200 -1 -14.9000 195.800 TC 35 -14.9000 -164.200 2 -14.5000 -165.100 TC 25 8 111
1971350S14194 1972 161 SP MM VIVIENNE 1971-12-16 15:00:00 TS -14.9373 -164.023 main 892 892 P________PP_P_ SH081972 -15.0073 -163.800 -1 -15.0073 -163.800 TC 35 -15.0194 -163.851 2 -14.7150 -164.642 TC 25 8 108
1971350S14194 1972 161 SP MM VIVIENNE 1971-12-16 18:00:00 TS -15.0543 -163.624 main 937 937 O________OP_O_ jtwc_sh SH081972 -15.1000 -163.400 -1 -15.1000 196.600 TC 35 -15.1171 -163.497 2 -14.9000 -164.200 TC 25 8 108
1971350S14194 1972 161 SP MM VIVIENNE 1971-12-16 21:00:00 TS -15.1779 -163.250 main 971 971 P________PP_P_ SH081972 -15.2195 -163.017 -1 -15.2195 -163.017 TC 35 -15.2313 -163.070 2 -15.0415 -163.897 TC 25 9 109
1971350S14194 1972 161 SP MM VIVIENNE 1971-12-17 00:00:00 TS -15.3500 -162.725 main 1036 1038 O________OO_O_ jtwc_sh SH081972 -15.4000 -162.500 -1 -15.4000 197.500 TC 35 -15.4000 -162.500 2 -15.2000 -163.400 TC 25 14 108
1971350S14194 1972 161 SP MM VIVIENNE 1971-12-17 03:00:00 TS -15.6110 -161.884 main 1126 1126 P________PP_P_ SH081972 -15.6699 -161.740 -1 -15.6699 -161.740 TC 35 -15.6532 -161.681 2 -15.4511 -162.376 TC 25 18 107
1971350S14194 1972 161 SP MM VIVIENNE 1971-12-17 06:00:00 TS -15.9030 -160.899 30 997 wellington main 1237 1237 O_______OOP_O_ jtwc_sh SH081972 -16.0000 -160.800 -1 -15.7000 -161.200 30 997 -16.0000 199.200 TC 35 -15.9627 -160.720 2 -15.7000 -161.200 TC 25 20 106
1971350S14194 1972 161 SP MM VIVIENNE 1971-12-17 09:00:00 TS -16.1663 -159.924 main 1348 1348 P_______PPP_P_ SH081972 -16.3277 -159.757 -1 -15.8560 -160.365 30 997 -16.3277 -159.757 TC 35 -16.3156 -159.699 2 -15.8493 -160.262 TC 25 19 106
1971350S14194 1972 161 SP MM VIVIENNE 1971-12-17 12:00:00 TS -16.4466 -158.976 main 1446 1446 O_______POO_O_ jtwc_sh SH081972 -16.7000 -158.700 -1 -16.0284 -159.514 30 997 -16.7000 201.300 TC 35 -16.7000 -158.700 2 -16.0000 -159.400 TC 25 19 109
1971350S14194 1972 161 SP MM VIVIENNE 1971-12-17 15:00:00 TS -16.7696 -158.097 main 1549 1549 P_______PPP_P_ SH081972 -17.1421 -157.755 -1 -16.2367 -158.631 30 997 -17.1421 -157.755 TC 35 -17.1080 -157.787 2 -16.2194 -158.557 TC 25 18 113
1971350S14194 1972 161 SP MM VIVIENNE 1971-12-17 18:00:00 TS -17.1484 -157.223 30 997 wellington main 1649 1649 O_______OOP_O_ jtwc_sh SH081972 -17.6000 -156.900 -1 -16.5000 -157.700 30 997 -17.6000 203.100 TC 35 -17.5422 -156.916 2 -16.5000 -157.700 TC 25 18 115
1971350S14194 1972 161 SP MM VIVIENNE 1971-12-17 21:00:00 TS -17.5322 -156.354 main 1741 1741 P_______PPP_P_ SH081972 -18.0148 -156.090 -1 -16.8312 -156.716 32 995 -18.0148 -156.090 TC 35 -17.9803 -156.112 2 -16.8198 -156.765 TC 27 18 116
1971350S14194 1972 161 SP MM VIVIENNE 1971-12-18 00:00:00 TS -17.9238 -155.544 main 1844 1844 O_______POO_O_ jtwc_sh SH081972 -18.4000 -155.400 -1 -17.2190 -155.719 35 993 -18.4000 204.600 TC 35 -18.4000 -155.400 2 -17.2000 -155.800 TC 30 17 118
1971350S14194 1972 161 SP MM VIVIENNE 1971-12-18 03:00:00 TS -18.3139 -154.820 main 1925 1925 P_______PPP_P_ SH081972 -18.7570 -154.862 -1 -17.6471 -154.762 37 991 -18.7570 -154.862 TC 35 -18.7735 -154.809 2 -17.6351 -154.805 TC 32 15 121
1971350S14194 1972 161 SP MM VIVIENNE 1971-12-18 06:00:00 TS -18.7055 -154.182 40 990 wellington main 1997 1997 O_______OOP_O_ jtwc_sh SH081972 -19.1000 -154.400 -1 -18.1000 -153.900 40 990 -19.1000 205.600 TC 35 -19.1273 -154.308 2 -18.1000 -153.900 TC 35 14 124
1971350S14194 1972 161 SP MM VIVIENNE 1971-12-18 09:00:00 TS -19.0935 -153.602 main 2069 2069 P_______PPP_P_ SH081972 -19.4574 -153.900 -1 -18.5433 -153.170 37 991 -19.4574 -153.900 TC 35 -19.4676 -153.853 2 -18.5419 -153.189 TC 32 13 126
1971350S14194 1972 161 SP MM VIVIENNE 1971-12-18 12:00:00 TS -19.4820 -153.068 main 2131 2131 O_______POO_O_ jtwc_sh SH081972 -19.8000 -153.400 -1 -19.0102 -152.541 35 993 -19.8000 206.600 TC 35 -19.8000 -153.400 2 -19.0000 -152.600 TC 30 13 128
1971350S14194 1972 161 SP MM VIVIENNE 1971-12-18 15:00:00 TS -19.8567 -152.549 main 2203 2203 P_______PPP_P_ SH081972 -20.0998 -152.907 -1 -19.4970 -151.992 32 995 -20.0998 -152.907 TC 35 -20.0944 -152.920 2 -19.4923 -152.020 TC 27 12 128
1971350S14194 1972 161 SP MM VIVIENNE 1971-12-18 18:00:00 TS -20.2376 -152.046 30 997 wellington main 2262 2262 O_______OOP_O_ jtwc_sh SH081972 -20.4000 -152.400 -1 -20.0000 -151.500 30 997 -20.4000 207.600 TC 35 -20.3880 -152.428 2 -20.0000 -151.500 TC 25 12 130
1971350S14194 1972 161 SP MM VIVIENNE 1971-12-18 21:00:00 TS -20.6349 -151.546 main 2324 2324 P_______PPP_P_ SH081972 -20.7272 -151.879 -1 -20.5150 -151.046 30 997 -20.7272 -151.879 TC 35 -20.7127 -151.898 2 -20.4923 -151.027 TC 25 12 132
1971350S14194 1972 161 SP MM VIVIENNE 1971-12-19 00:00:00 TS -21.0731 -151.070 main 2380 2380 O_______POO_O_ jtwc_sh SH081972 -21.1000 -151.300 -1 -21.0388 -150.617 30 997 -21.1000 208.700 TC 35 -21.1000 -151.300 2 -21.0000 -150.600 TC 25 13 133
1971350S14194 1972 161 SP MM VIVIENNE 1971-12-19 03:00:00 TS -21.5338 -150.526 main 2452 2452 P_______PPP_P_ SH081972 -21.5047 -150.644 -1 -21.5683 -150.205 30 997 -21.5047 -150.644 TC 35 -21.5716 -150.615 2 -21.5402 -150.196 TC 22 15 131
1971350S14194 1972 161 SP MM VIVIENNE 1971-12-19 06:00:00 TS -22.0487 -149.870 30 997 wellington main 2528 2528 O_______OOP_O_ jtwc_sh SH081972 -22.0000 -149.900 -1 -22.1000 -149.800 30 997 -22.0000 210.100 TC 35 -22.1120 -149.856 2 -22.1000 -149.800 TC 20 18 129
1971350S14194 1972 161 SP MM VIVIENNE 1971-12-19 09:00:00 TS -22.6428 -149.064 main 2626 2626 P________PP___ SH081972 -22.6160 -149.075 -1 -22.6160 -149.075 TC 35 -22.6964 -149.043 2 TC 20 129
1971350S14194 1972 161 SP MM VIVIENNE 1971-12-19 12:00:00 TS -23.3000 -148.200 main 2738 O________OO___ jtwc_sh SH081972 -23.3000 -148.200 -1 -23.3000 211.800 TC 35 -23.3000 -148.200 2 21 130

Digital Typhoon Data and Search

About IBTrACS Database

This database is a web-friendly format of International Best Track Archive for Climate Stewardship (IBTrACS), a global best track data archive curated by NOAA dating back to 1842.

Updated: 2021-10-21